Observations for NORWICH WEA CNTRE, United Kingdom (EGSH)

EGSH 202020Z 21010KT 190V250 CAVOK 09/05 Q1020 NOSIG
EGSH 201950Z 20007KT CAVOK 09/05 Q1020 NOSIG
EGSH 201920Z 20008KT CAVOK 09/05 Q1020 NOSIG
EGSH 201850Z 22009KT CAVOK 10/05 Q1019 NOSIG
EGSH 201820Z 21008KT CAVOK 10/05 Q1019 NOSIG
EGSH 201750Z 22008KT CAVOK 10/05 Q1019 NOSIG
EGSH 201720Z 22009KT 9999 SCT034 10/05 Q1019 NOSIG  
EGSH 201650Z 23012KT 9999 SCT033 11/05 Q1019 NOSIG  
EGSH 201620Z 23014KT 9999 SCT034 12/05 Q1018 NOSIG  
EGSH 201550Z 23012KT 9999 SCT033 12/06 Q1018 NOSIG  
EGSH 201520Z 23016KT 9999 SCT034 12/05 Q1018 NOSIG  
EGSH 201450Z 23014KT 190V260 9999 SCT032 12/06 Q1018 NOSIG  
EGSH 201420Z 23013KT 200V260 9999 SCT026 12/06 Q1018 NOSIG  
EGSH 201350Z 23015KT 200V270 9999 SCT026 12/06 Q1018 NOSIG  
EGSH 201320Z 23016KT 9999 SCT025 11/06 Q1019 NOSIG  
EGSH 201250Z 22016KT 9999 SCT024 11/06 Q1019 NOSIG  
EGSH 201220Z 23016KT 9999 FEW015 11/06 Q1019 NOSIG  
EGSH 201150Z 21014KT 9999 FEW015 11/07 Q1019 NOSIG  
EGSH 201120Z 22013KT 9999 FEW015 10/07 Q1018 NOSIG  
EGSH 201050Z 22014KT 9999 FEW015 SCT048 10/07 Q1018 NOSIG   
EGSH 201020Z 21013KT 9999 FEW015 SCT048 09/06 Q1018 NOSIG   
EGSH 200950Z 21013KT CAVOK 09/06 Q1018 NOSIG
EGSH 200920Z 21013KT CAVOK 09/06 Q1018 NOSIG
EGSH 200850Z 21012KT 9000 FEW012 SCT047 09/06 Q1018 NOSIG   
EGSH 200820Z 22012KT 9999 FEW032 SCT048 08/06 Q1017 NOSIG   
EGSH 200750Z 21012KT 9999 SCT045 08/05 Q1017 NOSIG  
EGSH 200720Z 21012KT 9999 SCT045 07/05 Q1017 NOSIG  
EGSH 200650Z 21010KT 9999 BKN040 07/05 Q1017 NOSIG  
EGSH 200620Z 21011KT 9999 BKN038 07/05 Q1017 NOSIG  
EGSH 200550Z 21011KT 9999 BKN038 07/05 Q1017 NOSIG  
EGSH 200520Z AUTO 21011KT 9999 OVC038/// 07/05 Q1017
EGSH 200450Z AUTO 21010KT 9999 SCT032/// BKN038/// OVC045/// 07/05 Q1017
EGSH 200420Z AUTO 21011KT 9999 SCT040/// BKN047/// 07/05 Q1017  
EGSH 200350Z AUTO 21011KT 180V240 9999 NCD 07/05 Q1017  
EGSH 200320Z AUTO 21010KT 9999 NCD 07/05 Q1017  
EGSH 200250Z AUTO 21011KT 9999 NCD 07/05 Q1017  
EGSH 200220Z AUTO 21010KT 9999 NCD 07/05 Q1017  
EGSH 200150Z AUTO 21011KT 9999 NCD 07/05 Q1017  
EGSH 200120Z AUTO 21010KT 9999 NCD 07/05 Q1018  
EGSH 200050Z AUTO 22010KT 9999 NCD 07/05 Q1018  
EGSH 200020Z AUTO 21009KT 9999 NCD 07/05 Q1018  
EGSH 192350Z AUTO 22010KT 9999 NCD 08/05 Q1017  
EGSH 192320Z AUTO 22010KT 9999 NCD 07/04 Q1017  
EGSH 192250Z AUTO 21010KT 9999 NCD 07/04 Q1017  
EGSH 192220Z AUTO 22010KT 9999 NCD 08/04 Q1017  
EGSH 192150Z AUTO 22010KT 9999 NCD 08/04 Q1017  
EGSH 192120Z 22008KT CAVOK 07/04 Q1018  
EGSH 192050Z 21009KT CAVOK 07/03 Q1018 NOSIG
EGSH 192020Z 21007KT 9999 SCT045 08/03 Q1018 NOSIG  
EGSH 191950Z 19005KT CAVOK 07/03 Q1018 NOSIG